Chesterfield, Idaho
Current Conditions -  °F | °C
As of 4:53 PM on Saturday 20 Dec 2014 (Local Time) from KPIH Reporting Station
Overcast Overcast  
Wind Chill: 32°   Ceiling: 2700
Heat Index: 40°   Visibility: 10mi
Dew Point: 34°   Wind: 14mph
Humidity: 79%   Direction: 190°S
Pressure: 29.99"   Gusts: NA
Location:  42.811°N, 111.938°W
Report Text: KPIH 202353Z 19012KT 10SM BKN027 OVC032 04/01 A2999 RMK AO2 RAB2256E14 SLP163 P0000 60000 T00440011 10050 20033 58004
Loading
Personal Weather Stations






























Interactive Weather Map New forecast layout! Learn more

10-Day Weather Forecast

Advertisements
Track Severe Weather on mobile